sensor_id;sensor_type;location;lat;lon;timestamp;pressure;altitude;pressure_sealevel;temperature;humidity
76195;BME280;64964;48.694;21.206;2022-12-20T00:01:09;99744.75;;;-4.47;77.96
76195;BME280;64964;48.694;21.206;2022-12-20T00:03:35;99735.25;;;-4.45;78.28
76195;BME280;64964;48.694;21.206;2022-12-20T00:06:01;99729.03;;;-4.36;76.91
76195;BME280;64964;48.694;21.206;2022-12-20T00:08:26;99731.59;;;-4.36;78.00
76195;BME280;64964;48.694;21.206;2022-12-20T00:10:52;99726.28;;;-4.29;76.59
76195;BME280;64964;48.694;21.206;2022-12-20T00:13:17;99732.13;;;-4.20;76.46
76195;BME280;64964;48.694;21.206;2022-12-20T00:15:42;99723.41;;;-4.16;76.61
76195;BME280;64964;48.694;21.206;2022-12-20T00:18:08;99720.22;;;-4.28;78.32
76195;BME280;64964;48.694;21.206;2022-12-20T00:20:33;99720.09;;;-4.21;77.54
76195;BME280;64964;48.694;21.206;2022-12-20T00:22:59;99719.25;;;-4.22;77.61
76195;BME280;64964;48.694;21.206;2022-12-20T00:25:25;99726.00;;;-4.16;76.64
76195;BME280;64964;48.694;21.206;2022-12-20T00:27:50;99722.50;;;-4.14;77.56
76195;BME280;64964;48.694;21.206;2022-12-20T00:30:16;99724.25;;;-4.16;78.06
76195;BME280;64964;48.694;21.206;2022-12-20T00:32:42;99713.88;;;-4.13;77.74
76195;BME280;64964;48.694;21.206;2022-12-20T00:35:08;99709.63;;;-4.15;78.08
76195;BME280;64964;48.694;21.206;2022-12-20T00:37:33;99713.31;;;-4.26;78.94
76195;BME280;64964;48.694;21.206;2022-12-20T00:39:59;99711.69;;;-4.31;78.94
76195;BME280;64964;48.694;21.206;2022-12-20T00:42:24;99703.16;;;-4.33;79.28
76195;BME280;64964;48.694;21.206;2022-12-20T00:44:49;99708.25;;;-4.32;79.30
76195;BME280;64964;48.694;21.206;2022-12-20T00:47:15;99709.06;;;-4.28;79.29
76195;BME280;64964;48.694;21.206;2022-12-20T00:49:40;99705.47;;;-4.22;79.21
76195;BME280;64964;48.694;21.206;2022-12-20T00:52:06;99699.56;;;-4.26;79.38
76195;BME280;64964;48.694;21.206;2022-12-20T00:54:31;99690.88;;;-4.23;79.74
76195;BME280;64964;48.694;21.206;2022-12-20T00:56:57;99690.53;;;-4.08;77.95
76195;BME280;64964;48.694;21.206;2022-12-20T00:59:22;99689.50;;;-4.03;78.07
76195;BME280;64964;48.694;21.206;2022-12-20T01:01:47;99687.72;;;-3.99;78.14
76195;BME280;64964;48.694;21.206;2022-12-20T01:04:13;99687.47;;;-3.88;77.24
76195;BME280;64964;48.694;21.206;2022-12-20T01:06:38;99685.69;;;-3.86;77.29
76195;BME280;64964;48.694;21.206;2022-12-20T01:09:04;99688.13;;;-3.80;77.57
76195;BME280;64964;48.694;21.206;2022-12-20T01:11:32;99678.47;;;-3.73;77.57
76195;BME280;64964;48.694;21.206;2022-12-20T01:14:01;99675.75;;;-3.67;76.96
76195;BME280;64964;48.694;21.206;2022-12-20T01:16:30;99676.34;;;-3.58;76.90
76195;BME280;64964;48.694;21.206;2022-12-20T01:18:55;99671.03;;;-3.53;76.76
76195;BME280;64964;48.694;21.206;2022-12-20T01:21:23;99664.84;;;-3.47;76.48
76195;BME280;64964;48.694;21.206;2022-12-20T01:23:48;99665.59;;;-3.42;76.46
76195;BME280;64964;48.694;21.206;2022-12-20T01:26:17;99663.81;;;-3.40;76.65
76195;BME280;64964;48.694;21.206;2022-12-20T01:28:44;99655.94;;;-3.36;76.36
76195;BME280;64964;48.694;21.206;2022-12-20T01:31:12;99649.75;;;-3.30;75.98
76195;BME280;64964;48.694;21.206;2022-12-20T01:33:38;99644.63;;;-3.32;76.18
76195;BME280;64964;48.694;21.206;2022-12-20T01:36:07;99651.53;;;-3.32;76.21
76195;BME280;64964;48.694;21.206;2022-12-20T01:38:33;99650.94;;;-3.42;76.71
76195;BME280;64964;48.694;21.206;2022-12-20T01:41:00;99651.72;;;-3.40;76.70
76195;BME280;64964;48.694;21.206;2022-12-20T01:43:44;99654.25;;;-3.37;76.40
76195;BME280;64964;48.694;21.206;2022-12-20T01:46:10;99649.88;;;-3.35;76.40
76195;BME280;64964;48.694;21.206;2022-12-20T01:48:36;99647.97;;;-3.28;75.90
76195;BME280;64964;48.694;21.206;2022-12-20T01:51:03;99641.88;;;-3.26;76.07
76195;BME280;64964;48.694;21.206;2022-12-20T01:53:29;99636.66;;;-3.24;76.05
76195;BME280;64964;48.694;21.206;2022-12-20T01:55:57;99635.72;;;-3.21;75.85
76195;BME280;64964;48.694;21.206;2022-12-20T01:58:24;99627.00;;;-3.19;76.02
76195;BME280;64964;48.694;21.206;2022-12-20T02:00:50;99624.34;;;-3.16;76.00
76195;BME280;64964;48.694;21.206;2022-12-20T02:03:15;99626.09;;;-3.16;76.08
76195;BME280;64964;48.694;21.206;2022-12-20T02:05:43;99621.72;;;-3.14;75.98
76195;BME280;64964;48.694;21.206;2022-12-20T02:08:10;99613.88;;;-3.11;75.91
76195;BME280;64964;48.694;21.206;2022-12-20T02:13:19;99612.88;;;-3.07;75.72
76195;BME280;64964;48.694;21.206;2022-12-20T02:15:53;99598.97;;;-3.03;75.60
76195;BME280;64964;48.694;21.206;2022-12-20T02:18:34;99593.81;;;-3.03;75.78
76195;BME280;64964;48.694;21.206;2022-12-20T02:32:03;99590.31;;;-3.02;76.08
76195;BME280;64964;48.694;21.206;2022-12-20T02:34:34;99585.25;;;-3.05;75.88
76195;BME280;64964;48.694;21.206;2022-12-20T02:37:01;99581.78;;;-3.06;75.92
76195;BME280;64964;48.694;21.206;2022-12-20T02:39:28;99584.38;;;-3.06;76.53
76195;BME280;64964;48.694;21.206;2022-12-20T02:41:56;99585.97;;;-3.02;76.11
76195;BME280;64964;48.694;21.206;2022-12-20T02:44:26;99580.78;;;-3.00;76.18
76195;BME280;64964;48.694;21.206;2022-12-20T02:47:19;99587.59;;;-2.97;75.98
76195;BME280;64964;48.694;21.206;2022-12-20T02:49:46;99590.09;;;-2.94;76.06
76195;BME280;64964;48.694;21.206;2022-12-20T02:52:14;99583.94;;;-2.90;75.64
76195;BME280;64964;48.694;21.206;2022-12-20T02:54:41;99584.84;;;-2.93;75.87
76195;BME280;64964;48.694;21.206;2022-12-20T02:57:24;99586.59;;;-2.93;76.10
76195;BME280;64964;48.694;21.206;2022-12-20T03:00:36;99585.06;;;-2.99;76.48
76195;BME280;64964;48.694;21.206;2022-12-20T03:02:42;99580.63;;;-2.95;76.06
76195;BME280;64964;48.694;21.206;2022-12-20T03:05:27;99580.78;;;-3.00;76.24
76195;BME280;64964;48.694;21.206;2022-12-20T03:07:53;99565.34;;;-3.03;76.68
76195;BME280;64964;48.694;21.206;2022-12-20T03:10:19;99569.72;;;-3.05;76.71
76195;BME280;64964;48.694;21.206;2022-12-20T03:12:45;99569.97;;;-3.14;77.22
76195;BME280;64964;48.694;21.206;2022-12-20T03:15:11;99571.78;;;-3.16;77.13
76195;BME280;64964;48.694;21.206;2022-12-20T03:17:36;99567.50;;;-3.17;77.66
76195;BME280;64964;48.694;21.206;2022-12-20T03:20:04;99568.38;;;-3.18;77.58
76195;BME280;64964;48.694;21.206;2022-12-20T03:22:31;99570.13;;;-3.19;77.64
76195;BME280;64964;48.694;21.206;2022-12-20T03:24:58;99565.03;;;-3.22;77.81
76195;BME280;64964;48.694;21.206;2022-12-20T03:27:23;99569.13;;;-3.15;77.46
76195;BME280;64964;48.694;21.206;2022-12-20T03:29:50;99577.72;;;-3.13;77.45
76195;BME280;64964;48.694;21.206;2022-12-20T03:32:15;99570.75;;;-3.11;77.50
76195;BME280;64964;48.694;21.206;2022-12-20T03:34:40;99559.47;;;-3.08;77.76
76195;BME280;64964;48.694;21.206;2022-12-20T03:37:06;99557.53;;;-3.02;77.31
76195;BME280;64964;48.694;21.206;2022-12-20T03:39:31;99557.38;;;-2.97;77.06
76195;BME280;64964;48.694;21.206;2022-12-20T03:41:56;99553.94;;;-2.97;77.01
76195;BME280;64964;48.694;21.206;2022-12-20T03:44:22;99553.16;;;-2.99;77.06
76195;BME280;64964;48.694;21.206;2022-12-20T03:46:49;99557.63;;;-3.05;77.26
76195;BME280;64964;48.694;21.206;2022-12-20T03:49:14;99550.59;;;-2.99;77.04
76195;BME280;64964;48.694;21.206;2022-12-20T03:51:39;99552.31;;;-3.00;76.91
76195;BME280;64964;48.694;21.206;2022-12-20T03:54:05;99547.47;;;-3.11;77.55
76195;BME280;64964;48.694;21.206;2022-12-20T03:56:31;99543.09;;;-3.09;77.42
76195;BME280;64964;48.694;21.206;2022-12-20T03:58:56;99546.56;;;-3.10;77.77
76195;BME280;64964;48.694;21.206;2022-12-20T04:01:25;99543.09;;;-3.09;77.62
76195;BME280;64964;48.694;21.206;2022-12-20T04:03:51;99543.88;;;-3.07;77.43
76195;BME280;64964;48.694;21.206;2022-12-20T04:06:17;99545.69;;;-3.09;77.61
76195;BME280;64964;48.694;21.206;2022-12-20T04:08:43;99549.97;;;-3.08;77.79
76195;BME280;64964;48.694;21.206;2022-12-20T04:11:08;99546.47;;;-3.07;77.70
76195;BME280;64964;48.694;21.206;2022-12-20T04:13:41;99544.78;;;-3.08;77.52
76195;BME280;64964;48.694;21.206;2022-12-20T04:16:06;99542.16;;;-3.06;77.73
76195;BME280;64964;48.694;21.206;2022-12-20T04:18:32;99542.34;;;-3.12;78.19
76195;BME280;64964;48.694;21.206;2022-12-20T04:20:59;99543.84;;;-3.05;77.74
76195;BME280;64964;48.694;21.206;2022-12-20T04:23:24;99525.94;;;-3.11;77.90
76195;BME280;64964;48.694;21.206;2022-12-20T04:25:50;99535.28;;;-3.07;78.13
76195;BME280;64964;48.694;21.206;2022-12-20T04:28:15;99531.91;;;-3.09;78.21
76195;BME280;64964;48.694;21.206;2022-12-20T04:30:40;99524.03;;;-3.06;77.94
76195;BME280;64964;48.694;21.206;2022-12-20T04:33:06;99533.50;;;-3.05;78.05
76195;BME280;64964;48.694;21.206;2022-12-20T04:35:31;99525.59;;;-3.01;77.89
76195;BME280;64964;48.694;21.206;2022-12-20T04:37:57;99516.13;;;-3.02;78.29
76195;BME280;64964;48.694;21.206;2022-12-20T04:40:22;99510.03;;;-2.99;77.99
76195;BME280;64964;48.694;21.206;2022-12-20T04:42:47;99512.41;;;-2.93;77.77
76195;BME280;64964;48.694;21.206;2022-12-20T04:45:13;99509.78;;;-2.91;77.58
76195;BME280;64964;48.694;21.206;2022-12-20T04:47:38;99504.56;;;-2.90;77.97
76195;BME280;64964;48.694;21.206;2022-12-20T04:50:05;99499.38;;;-2.90;77.94
76195;BME280;64964;48.694;21.206;2022-12-20T04:52:31;99503.72;;;-2.90;77.85
76195;BME280;64964;48.694;21.206;2022-12-20T04:55:14;99504.75;;;-2.96;78.58
76195;BME280;64964;48.694;21.206;2022-12-20T04:57:40;99503.06;;;-2.97;78.49
76195;BME280;64964;48.694;21.206;2022-12-20T05:00:06;99506.53;;;-2.98;78.51
76195;BME280;64964;48.694;21.206;2022-12-20T05:02:31;99490.84;;;-2.92;78.51
76195;BME280;64964;48.694;21.206;2022-12-20T05:04:57;99497.75;;;-2.92;78.82
76195;BME280;64964;48.694;21.206;2022-12-20T05:07:22;99493.22;;;-2.86;78.42
76195;BME280;64964;48.694;21.206;2022-12-20T05:09:47;99486.53;;;-2.93;79.20
76195;BME280;64964;48.694;21.206;2022-12-20T05:12:13;99476.06;;;-2.88;78.58
76195;BME280;64964;48.694;21.206;2022-12-20T05:14:38;99469.09;;;-2.86;78.57
76195;BME280;64964;48.694;21.206;2022-12-20T05:17:03;99473.47;;;-2.88;79.21
76195;BME280;64964;48.694;21.206;2022-12-20T05:19:29;99472.59;;;-2.89;79.15
76195;BME280;64964;48.694;21.206;2022-12-20T05:21:54;99478.66;;;-2.88;79.20
76195;BME280;64964;48.694;21.206;2022-12-20T05:24:38;99468.19;;;-2.85;79.18
76195;BME280;64964;48.694;21.206;2022-12-20T05:27:22;99480.09;;;-2.80;78.70
76195;BME280;64964;48.694;21.206;2022-12-20T05:29:47;99475.69;;;-2.78;78.92
76195;BME280;64964;48.694;21.206;2022-12-20T05:32:12;99480.78;;;-2.74;78.98
76195;BME280;64964;48.694;21.206;2022-12-20T05:34:38;99482.38;;;-2.70;79.08
76195;BME280;64964;48.694;21.206;2022-12-20T05:37:03;99485.75;;;-2.68;79.15
76195;BME280;64964;48.694;21.206;2022-12-20T05:39:28;99490.09;;;-2.69;79.11
76195;BME280;64964;48.694;21.206;2022-12-20T05:41:54;99482.31;;;-2.69;79.51
76195;BME280;64964;48.694;21.206;2022-12-20T05:44:19;99479.56;;;-2.63;79.51
76195;BME280;64964;48.694;21.206;2022-12-20T05:46:46;99482.06;;;-2.61;79.85
76195;BME280;64964;48.694;21.206;2022-12-20T05:49:12;99489.00;;;-2.62;79.62
76195;BME280;64964;48.694;21.206;2022-12-20T05:51:38;99485.59;;;-2.64;80.27
76195;BME280;64964;48.694;21.206;2022-12-20T05:54:03;99475.09;;;-2.59;79.82
76195;BME280;64964;48.694;21.206;2022-12-20T05:56:29;99477.69;;;-2.59;79.95
76195;BME280;64964;48.694;21.206;2022-12-20T05:58:54;99479.16;;;-2.51;79.18
76195;BME280;64964;48.694;21.206;2022-12-20T06:01:19;99484.50;;;-2.57;80.12
76195;BME280;64964;48.694;21.206;2022-12-20T06:03:45;99487.84;;;-2.53;79.77
76195;BME280;64964;48.694;21.206;2022-12-20T06:06:10;99485.19;;;-2.52;80.07
76195;BME280;64964;48.694;21.206;2022-12-20T06:08:35;99491.22;;;-2.51;79.95
76195;BME280;64964;48.694;21.206;2022-12-20T06:11:01;99486.69;;;-2.44;79.60
76195;BME280;64964;48.694;21.206;2022-12-20T06:13:29;99487.50;;;-2.42;79.99
76195;BME280;64964;48.694;21.206;2022-12-20T06:15:54;99484.84;;;-2.41;79.69
76195;BME280;64964;48.694;21.206;2022-12-20T06:18:20;99478.59;;;-2.35;79.38
76195;BME280;64964;48.694;21.206;2022-12-20T06:20:52;99474.44;;;-2.39;79.48
76195;BME280;64964;48.694;21.206;2022-12-20T06:23:18;99478.75;;;-2.40;79.64
76195;BME280;64964;48.694;21.206;2022-12-20T06:25:44;99479.72;;;-2.42;79.90
76195;BME280;64964;48.694;21.206;2022-12-20T06:28:10;99471.75;;;-2.36;79.40
76195;BME280;64964;48.694;21.206;2022-12-20T06:30:35;99473.66;;;-2.41;80.02
76195;BME280;64964;48.694;21.206;2022-12-20T06:33:01;99465.97;;;-2.44;80.37
76195;BME280;64964;48.694;21.206;2022-12-20T06:35:28;99458.28;;;-2.46;80.36
76195;BME280;64964;48.694;21.206;2022-12-20T06:37:53;99464.31;;;-2.47;80.53
76195;BME280;64964;48.694;21.206;2022-12-20T06:40:19;99466.72;;;-2.41;80.16
76195;BME280;64964;48.694;21.206;2022-12-20T06:42:45;99464.28;;;-2.45;80.41
76195;BME280;64964;48.694;21.206;2022-12-20T06:45:10;99469.56;;;-2.48;80.46
76195;BME280;64964;48.694;21.206;2022-12-20T06:47:36;99482.94;;;-2.36;79.74
76195;BME280;64964;48.694;21.206;2022-12-20T06:50:02;99481.09;;;-2.32;79.28
76195;BME280;64964;48.694;21.206;2022-12-20T06:52:27;99468.09;;;-2.31;79.32
76195;BME280;64964;48.694;21.206;2022-12-20T06:54:53;99474.84;;;-2.27;79.22
76195;BME280;64964;48.694;21.206;2022-12-20T06:57:18;99479.19;;;-2.27;79.12
76195;BME280;64964;48.694;21.206;2022-12-20T06:59:44;99472.50;;;-2.33;79.53
76195;BME280;64964;48.694;21.206;2022-12-20T07:02:10;99472.16;;;-2.23;78.96
76195;BME280;64964;48.694;21.206;2022-12-20T07:04:36;99465.97;;;-2.19;78.78
76195;BME280;64964;48.694;21.206;2022-12-20T07:07:02;99469.47;;;-2.20;78.66
76195;BME280;64964;48.694;21.206;2022-12-20T07:09:28;99468.56;;;-2.19;78.41
76195;BME280;64964;48.694;21.206;2022-12-20T07:11:54;99471.94;;;-2.17;78.29
76195;BME280;64964;48.694;21.206;2022-12-20T07:14:19;99465.75;;;-2.13;78.33
76195;BME280;64964;48.694;21.206;2022-12-20T07:16:45;99468.22;;;-2.09;78.33
76195;BME280;64964;48.694;21.206;2022-12-20T07:19:12;99461.44;;;-2.13;78.41
76195;BME280;64964;48.694;21.206;2022-12-20T07:21:38;99464.75;;;-2.09;78.06
76195;BME280;64964;48.694;21.206;2022-12-20T07:24:04;99472.38;;;-2.05;78.27
76195;BME280;64964;48.694;21.206;2022-12-20T07:26:30;99470.56;;;-2.03;78.09
76195;BME280;64964;48.694;21.206;2022-12-20T07:28:55;99472.38;;;-2.05;78.13
76195;BME280;64964;48.694;21.206;2022-12-20T07:31:20;99474.97;;;-2.05;77.96
76195;BME280;64964;48.694;21.206;2022-12-20T07:33:46;99473.06;;;-1.99;78.50
76195;BME280;64964;48.694;21.206;2022-12-20T07:36:12;99471.06;;;-1.93;78.19
76195;BME280;64964;48.694;21.206;2022-12-20T07:38:40;99465.69;;;-1.87;78.12
76195;BME280;64964;48.694;21.206;2022-12-20T07:41:10;99470.59;;;-1.79;78.36
76195;BME280;64964;48.694;21.206;2022-12-20T07:43:36;99461.47;;;-1.66;77.74
76195;BME280;64964;48.694;21.206;2022-12-20T07:46:02;99458.53;;;-1.57;77.29
76195;BME280;64964;48.694;21.206;2022-12-20T07:48:28;99457.44;;;-1.51;77.17
76195;BME280;64964;48.694;21.206;2022-12-20T07:51:00;99459.81;;;-1.45;76.88
76195;BME280;64964;48.694;21.206;2022-12-20T07:53:27;99463.00;;;-1.38;76.69
76195;BME280;64964;48.694;21.206;2022-12-20T07:55:56;99454.56;;;-1.21;75.95
76195;BME280;64964;48.694;21.206;2022-12-20T07:58:23;99451.69;;;-1.14;75.97
76195;BME280;64964;48.694;21.206;2022-12-20T08:00:48;99451.63;;;-1.12;75.08
76195;BME280;64964;48.694;21.206;2022-12-20T08:03:28;99457.88;;;-1.18;74.70
76195;BME280;64964;48.694;21.206;2022-12-20T08:05:57;99447.94;;;-1.07;74.53
76195;BME280;64964;48.694;21.206;2022-12-20T08:08:24;99438.78;;;-1.15;74.94
76195;BME280;64964;48.694;21.206;2022-12-20T08:10:50;99436.41;;;-0.99;74.62
76195;BME280;64964;48.694;21.206;2022-12-20T08:13:16;99442.69;;;-0.83;73.96
76195;BME280;64964;48.694;21.206;2022-12-20T08:15:42;99450.38;;;-0.39;73.08
76195;BME280;64964;48.694;21.206;2022-12-20T08:18:07;99443.09;;;0.08;71.73
76195;BME280;64964;48.694;21.206;2022-12-20T08:20:33;99437.34;;;0.58;69.40
76195;BME280;64964;48.694;21.206;2022-12-20T08:22:58;99433.25;;;1.08;67.99
76195;BME280;64964;48.694;21.206;2022-12-20T08:25:24;99418.28;;;1.65;65.68
76195;BME280;64964;48.694;21.206;2022-12-20T08:27:49;99417.06;;;2.21;65.08
76195;BME280;64964;48.694;21.206;2022-12-20T08:30:15;99416.59;;;2.30;63.07
76195;BME280;64964;48.694;21.206;2022-12-20T08:32:40;99419.19;;;2.62;62.57
76195;BME280;64964;48.694;21.206;2022-12-20T08:35:06;99415.22;;;3.02;61.97
76195;BME280;64964;48.694;21.206;2022-12-20T08:37:32;99413.34;;;3.34;60.58
76195;BME280;64964;48.694;21.206;2022-12-20T08:39:57;99420.25;;;3.65;59.88
76195;BME280;64964;48.694;21.206;2022-12-20T08:42:22;99413.75;;;3.87;58.71
76195;BME280;64964;48.694;21.206;2022-12-20T08:44:48;99422.44;;;4.02;58.53
76195;BME280;64964;48.694;21.206;2022-12-20T08:47:13;99420.09;;;4.25;58.86
76195;BME280;64964;48.694;21.206;2022-12-20T08:49:39;99418.13;;;4.43;56.38
76195;BME280;64964;48.694;21.206;2022-12-20T08:52:05;99421.25;;;4.77;58.04
76195;BME280;64964;48.694;21.206;2022-12-20T08:54:30;99415.09;;;5.31;56.51
76195;BME280;64964;48.694;21.206;2022-12-20T08:56:56;99421.69;;;5.76;56.32
76195;BME280;64964;48.694;21.206;2022-12-20T08:59:21;99423.91;;;5.82;54.52
76195;BME280;64964;48.694;21.206;2022-12-20T09:01:46;99429.53;;;5.50;55.58
76195;BME280;64964;48.694;21.206;2022-12-20T09:04:13;99423.69;;;4.93;55.47
76195;BME280;64964;48.694;21.206;2022-12-20T09:06:39;99417.03;;;4.19;55.99
76195;BME280;64964;48.694;21.206;2022-12-20T09:09:04;99416.53;;;3.69;58.05
76195;BME280;64964;48.694;21.206;2022-12-20T09:11:31;99415.09;;;3.19;58.70
76195;BME280;64964;48.694;21.206;2022-12-20T09:13:57;99408.38;;;2.99;59.73
76195;BME280;64964;48.694;21.206;2022-12-20T09:16:26;99415.06;;;2.58;60.93
76195;BME280;64964;48.694;21.206;2022-12-20T09:18:53;99410.34;;;2.48;61.81
76195;BME280;64964;48.694;21.206;2022-12-20T09:21:19;99402.19;;;2.23;61.78
76195;BME280;64964;48.694;21.206;2022-12-20T09:23:45;99390.28;;;2.02;62.34
76195;BME280;64964;48.694;21.206;2022-12-20T09:26:13;99400.78;;;1.49;63.45
76195;BME280;64964;48.694;21.206;2022-12-20T09:28:40;99404.25;;;1.50;63.51
76195;BME280;64964;48.694;21.206;2022-12-20T09:31:09;99391.91;;;1.36;63.85
76195;BME280;64964;48.694;21.206;2022-12-20T09:33:35;99393.59;;;1.37;64.13
76195;BME280;64964;48.694;21.206;2022-12-20T09:36:01;99386.72;;;1.19;64.20
76195;BME280;64964;48.694;21.206;2022-12-20T09:38:28;99385.25;;;1.31;63.98
76195;BME280;64964;48.694;21.206;2022-12-20T09:40:56;99384.00;;;1.38;63.79
76195;BME280;64964;48.694;21.206;2022-12-20T09:43:23;99377.44;;;1.48;63.72
76195;BME280;64964;48.694;21.206;2022-12-20T09:45:54;99378.94;;;1.69;64.01
76195;BME280;64964;48.694;21.206;2022-12-20T09:48:34;99366.03;;;1.99;63.33
76195;BME280;64964;48.694;21.206;2022-12-20T09:51:34;99365.97;;;2.01;62.77
76195;BME280;64964;48.694;21.206;2022-12-20T09:56:41;99356.78;;;1.94;62.17
76195;BME280;64964;48.694;21.206;2022-12-20T09:59:12;99355.53;;;2.01;62.88
76195;BME280;64964;48.694;21.206;2022-12-20T10:01:43;99346.09;;;1.98;62.85
76195;BME280;64964;48.694;21.206;2022-12-20T10:04:21;99351.28;;;1.83;63.23
76195;BME280;64964;48.694;21.206;2022-12-20T10:14:42;99359.06;;;1.67;63.41
76195;BME280;64964;48.694;21.206;2022-12-20T10:17:20;99366.66;;;1.71;63.88
76195;BME280;64964;48.694;21.206;2022-12-20T10:20:07;99359.84;;;1.69;64.02
76195;BME280;64964;48.694;21.206;2022-12-20T10:22:58;99359.69;;;1.72;63.93
76195;BME280;64964;48.694;21.206;2022-12-20T10:25:30;99348.63;;;1.67;63.81
76195;BME280;64964;48.694;21.206;2022-12-20T10:27:57;99340.16;;;1.63;64.49
76195;BME280;64964;48.694;21.206;2022-12-20T10:30:26;99335.09;;;1.60;64.67
76195;BME280;64964;48.694;21.206;2022-12-20T10:32:55;99332.44;;;1.44;64.96
76195;BME280;64964;48.694;21.206;2022-12-20T10:38:07;99302.69;;;1.48;65.07
76195;BME280;64964;48.694;21.206;2022-12-20T10:41:00;99295.16;;;1.60;64.61
76195;BME280;64964;48.694;21.206;2022-12-20T10:43:27;99309.38;;;1.70;64.54
76195;BME280;64964;48.694;21.206;2022-12-20T10:46:13;99307.66;;;1.86;63.75
76195;BME280;64964;48.694;21.206;2022-12-20T10:48:42;99306.47;;;1.92;63.36
76195;BME280;64964;48.694;21.206;2022-12-20T10:54:01;99284.94;;;1.88;62.46
76195;BME280;64964;48.694;21.206;2022-12-20T10:56:34;99281.25;;;1.92;62.37
76195;BME280;64964;48.694;21.206;2022-12-20T11:01:43;99281.47;;;1.88;62.45
76195;BME280;64964;48.694;21.206;2022-12-20T11:04:31;99275.00;;;1.95;62.62
76195;BME280;64964;48.694;21.206;2022-12-20T11:06:59;99272.56;;;1.92;62.55
76195;BME280;64964;48.694;21.206;2022-12-20T11:09:36;99265.78;;;2.05;62.41
76195;BME280;64964;48.694;21.206;2022-12-20T11:12:10;99273.91;;;2.15;62.46
76195;BME280;64964;48.694;21.206;2022-12-20T11:14:40;99272.47;;;2.25;61.88
76195;BME280;64964;48.694;21.206;2022-12-20T11:17:21;99262.53;;;2.32;61.55
76195;BME280;64964;48.694;21.206;2022-12-20T11:27:39;99255.69;;;2.45;60.36
76195;BME280;64964;48.694;21.206;2022-12-20T11:30:14;99257.91;;;2.37;59.71
76195;BME280;64964;48.694;21.206;2022-12-20T11:38:11;99244.13;;;2.19;60.72
76195;BME280;64964;48.694;21.206;2022-12-20T11:40:56;99232.09;;;2.16;61.15
76195;BME280;64964;48.694;21.206;2022-12-20T11:43:32;99245.97;;;2.17;61.06
76195;BME280;64964;48.694;21.206;2022-12-20T11:51:23;99241.25;;;2.08;61.50
76195;BME280;64964;48.694;21.206;2022-12-20T11:54:10;99228.16;;;2.09;61.41
76195;BME280;64964;48.694;21.206;2022-12-20T11:56:41;99230.56;;;1.96;61.72
76195;BME280;64964;48.694;21.206;2022-12-20T11:59:18;99219.91;;;1.85;62.32
76195;BME280;64964;48.694;21.206;2022-12-20T12:02:16;99213.25;;;1.80;62.75
76195;BME280;64964;48.694;21.206;2022-12-20T12:04:49;99207.31;;;1.78;62.18
76195;BME280;64964;48.694;21.206;2022-12-20T12:07:22;99211.00;;;1.73;61.72
76195;BME280;64964;48.694;21.206;2022-12-20T12:10:00;99212.94;;;1.70;62.21
76195;BME280;64964;48.694;21.206;2022-12-20T12:12:31;99213.03;;;1.68;62.60
76195;BME280;64964;48.694;21.206;2022-12-20T12:15:09;99205.34;;;1.49;62.68
76195;BME280;64964;48.694;21.206;2022-12-20T12:17:51;99197.22;;;1.56;62.65
76195;BME280;64964;48.694;21.206;2022-12-20T12:22:46;99208.19;;;1.45;62.48
76195;BME280;64964;48.694;21.206;2022-12-20T12:25:16;99210.06;;;1.43;62.64
76195;BME280;64964;48.694;21.206;2022-12-20T12:27:42;99202.31;;;1.41;62.98
76195;BME280;64964;48.694;21.206;2022-12-20T12:30:12;99204.91;;;1.41;62.99
76195;BME280;64964;48.694;21.206;2022-12-20T12:32:57;99196.25;;;1.41;63.30
76195;BME280;64964;48.694;21.206;2022-12-20T12:46:42;99166.94;;;1.21;63.86
76195;BME280;64964;48.694;21.206;2022-12-20T12:49:16;99177.06;;;1.10;64.03
76195;BME280;64964;48.694;21.206;2022-12-20T12:51:48;99174.56;;;1.09;64.31
76195;BME280;64964;48.694;21.206;2022-12-20T12:57:01;99178.88;;;0.92;64.43
76195;BME280;64964;48.694;21.206;2022-12-20T13:04:30;99184.59;;;0.99;64.57
76195;BME280;64964;48.694;21.206;2022-12-20T13:06:59;99181.41;;;0.94;64.38
76195;BME280;64964;48.694;21.206;2022-12-20T13:11:52;99180.19;;;0.84;65.31
76195;BME280;64964;48.694;21.206;2022-12-20T13:19:33;99183.47;;;0.87;64.60
76195;BME280;64964;48.694;21.206;2022-12-20T13:27:20;99185.78;;;0.76;65.56
76195;BME280;64964;48.694;21.206;2022-12-20T13:40:39;99202.53;;;0.70;66.08
76195;BME280;64964;48.694;21.206;2022-12-20T13:48:49;99197.19;;;0.73;66.13
76195;BME280;64964;48.694;21.206;2022-12-20T13:51:17;99194.75;;;0.70;67.00
76195;BME280;64964;48.694;21.206;2022-12-20T13:53:54;99168.81;;;0.69;66.77
76195;BME280;64964;48.694;21.206;2022-12-20T13:56:30;99158.63;;;0.64;67.37
76195;BME280;64964;48.694;21.206;2022-12-20T13:59:03;99157.78;;;0.64;67.49
76195;BME280;64964;48.694;21.206;2022-12-20T14:01:29;99153.81;;;0.57;67.64
76195;BME280;64964;48.694;21.206;2022-12-20T14:03:56;99148.75;;;0.54;68.24
76195;BME280;64964;48.694;21.206;2022-12-20T14:06:23;99151.84;;;0.44;68.76
76195;BME280;64964;48.694;21.206;2022-12-20T14:08:51;99149.09;;;0.47;68.26
76195;BME280;64964;48.694;21.206;2022-12-20T14:11:21;99142.13;;;0.48;68.27
76195;BME280;64964;48.694;21.206;2022-12-20T14:14:10;99151.09;;;0.42;68.85
76195;BME280;64964;48.694;21.206;2022-12-20T14:16:36;99153.50;;;0.45;68.18
76195;BME280;64964;48.694;21.206;2022-12-20T14:19:04;99155.44;;;0.42;69.09
76195;BME280;64964;48.694;21.206;2022-12-20T14:21:34;99156.44;;;0.39;68.87
76195;BME280;64964;48.694;21.206;2022-12-20T14:24:02;99158.19;;;0.39;68.65
76195;BME280;64964;48.694;21.206;2022-12-20T14:26:30;99156.56;;;0.36;68.85
76195;BME280;64964;48.694;21.206;2022-12-20T14:28:58;99157.41;;;0.37;68.72
76195;BME280;64964;48.694;21.206;2022-12-20T14:31:28;99152.59;;;0.29;69.02
76195;BME280;64964;48.694;21.206;2022-12-20T14:36:45;99138.06;;;0.25;69.17
76195;BME280;64964;48.694;21.206;2022-12-20T14:39:37;99121.25;;;0.15;70.13
76195;BME280;64964;48.694;21.206;2022-12-20T14:44:32;99131.56;;;0.16;69.77
76195;BME280;64964;48.694;21.206;2022-12-20T14:47:00;99130.72;;;0.16;69.82